createdAt,value
2022-12-01T00:00:08.211Z,102323.47
2022-12-01T00:04:11.332Z,102330.38
2022-12-01T00:08:15.430Z,102336.63
2022-12-01T00:12:18.133Z,102336.31
2022-12-01T00:16:21.207Z,102335.59
2022-12-01T00:20:24.219Z,102332.91
2022-12-01T00:24:28.419Z,102329.34
2022-12-01T00:28:31.122Z,102334.91
2022-12-01T00:32:33.939Z,102337.44
2022-12-01T00:36:36.625Z,102329.19
2022-12-01T00:40:40.670Z,102335.47
2022-12-01T00:44:44.596Z,102337.50
2022-12-01T00:48:47.543Z,102338.19
2022-12-01T00:52:50.290Z,102331.63
2022-12-01T00:56:54.326Z,102329.41
2022-12-01T01:01:02.615Z,102329.94
2022-12-01T01:05:06.351Z,102335.50
2022-12-01T01:09:09.059Z,102334.94
2022-12-01T01:13:14.039Z,102333.28
2022-12-01T01:17:16.780Z,102340.22
2022-12-01T01:21:22.116Z,102342.44
2022-12-01T01:25:24.825Z,102344.97
2022-12-01T01:29:28.927Z,102348.84
2022-12-01T01:33:31.613Z,102355.09
2022-12-01T01:37:34.399Z,102356.78
2022-12-01T01:41:37.126Z,102352.41
2022-12-01T01:45:41.331Z,102360.00
2022-12-01T01:49:44.201Z,102360.34
2022-12-01T01:53:47.832Z,102362.19
2022-12-01T01:57:51.020Z,102364.56
2022-12-01T02:02:01.524Z,102354.94
2022-12-01T02:06:05.342Z,102350.91
2022-12-01T02:10:11.992Z,102352.41
2022-12-01T02:14:40.666Z,102348.00
2022-12-01T02:18:51.541Z,102347.31
2022-12-01T02:23:15.634Z,102348.31
2022-12-01T02:27:30.707Z,102345.81
2022-12-01T02:31:40.960Z,102338.88
2022-12-01T02:35:49.536Z,102344.13
2022-12-01T02:39:59.046Z,102346.34
2022-12-01T02:44:09.000Z,102342.97
2022-12-01T02:48:20.232Z,102345.66
2022-12-01T02:52:26.908Z,102346.31
2022-12-01T02:56:30.117Z,102351.72
2022-12-01T03:00:33.197Z,102350.88
2022-12-01T03:04:51.855Z,102351.06
2022-12-01T03:09:06.120Z,102339.44
2022-12-01T03:13:19.717Z,102342.31
2022-12-01T03:17:29.515Z,102341.13
2022-12-01T03:21:37.076Z,102347.16
2022-12-01T03:25:43.073Z,102344.81
2022-12-01T03:29:49.615Z,102343.47
2022-12-01T03:33:59.047Z,102347.66
2022-12-01T03:38:07.807Z,102347.34
2022-12-01T03:42:17.672Z,102354.75
2022-12-01T03:46:26.533Z,102348.69
2022-12-01T03:50:37.695Z,102344.47
2022-12-01T03:54:53.062Z,102355.63
2022-12-01T03:58:58.530Z,102356.28
2022-12-01T04:03:04.239Z,102360.84
2022-12-01T04:07:07.211Z,102365.22
2022-12-01T04:11:29.465Z,102363.19
2022-12-01T04:15:35.060Z,102366.41
2022-12-01T04:19:37.767Z,102359.50
2022-12-01T04:23:57.851Z,102366.06
2022-12-01T04:28:01.909Z,102360.66
2022-12-01T04:32:04.968Z,102358.66
2022-12-01T04:36:08.328Z,102359.81
2022-12-01T04:40:12.138Z,102362.19
2022-12-01T04:44:16.475Z,102368.13
2022-12-01T04:48:19.195Z,102356.81
2022-12-01T04:52:21.922Z,102353.94
2022-12-01T04:56:24.799Z,102353.94
2022-12-01T05:00:28.962Z,102354.13
2022-12-01T05:04:33.856Z,102352.94
2022-12-01T05:08:36.636Z,102364.25
2022-12-01T05:12:41.018Z,102362.22
2022-12-01T05:16:45.173Z,102355.47
2022-12-01T05:21:00.151Z,102355.78
2022-12-01T05:25:02.847Z,102358.50
2022-12-01T05:29:06.154Z,102362.38
2022-12-01T05:33:10.249Z,102352.94
2022-12-01T05:37:12.949Z,102361.88
2022-12-01T05:41:15.708Z,102357.13
2022-12-01T05:45:18.549Z,102363.38
2022-12-01T05:49:22.614Z,102359.47
2022-12-01T05:53:25.413Z,102348.84
2022-12-01T05:57:28.344Z,102359.69
2022-12-01T06:01:31.116Z,102354.44
2022-12-01T06:05:35.214Z,102355.78
2022-12-01T06:09:37.999Z,102350.22
2022-12-01T06:13:40.804Z,102352.91
2022-12-01T06:17:43.531Z,102348.88
2022-12-01T06:21:47.597Z,102359.84
2022-12-01T06:25:50.514Z,102361.34
2022-12-01T06:29:53.472Z,102370.13
2022-12-01T06:33:56.376Z,102375.53
2022-12-01T06:38:00.471Z,102373.69
2022-12-01T06:42:03.210Z,102377.22
2022-12-01T06:46:06.636Z,102385.16
2022-12-01T06:50:11.794Z,102387.34
2022-12-01T06:54:17.776Z,102382.63
2022-12-01T06:58:20.571Z,102394.78
2022-12-01T07:02:23.871Z,102394.59
2022-12-01T07:06:26.618Z,102391.41
2022-12-01T07:10:30.729Z,102389.03
2022-12-01T07:14:33.564Z,102392.75
2022-12-01T07:18:37.043Z,102397.81
2022-12-01T07:22:39.977Z,102402.03
2022-12-01T07:26:44.637Z,102394.78
2022-12-01T07:30:47.440Z,102410.47
2022-12-01T07:34:50.223Z,102399.00
2022-12-01T07:38:52.961Z,102408.44
2022-12-01T07:42:57.053Z,102413.34
2022-12-01T07:46:59.787Z,102409.09
2022-12-01T07:51:02.966Z,102420.25
2022-12-01T07:55:06.443Z,102418.06
2022-12-01T07:59:11.874Z,102408.25
2022-12-01T08:03:15.034Z,102407.75
2022-12-01T08:07:18.970Z,102413.16
2022-12-01T08:11:23.376Z,102411.66
2022-12-01T08:15:27.512Z,102418.91
2022-12-01T08:19:30.310Z,102411.13
2022-12-01T08:23:33.392Z,102429.53
2022-12-01T08:27:36.573Z,102417.38
2022-12-01T08:31:40.707Z,102424.47
2022-12-01T08:35:43.486Z,102423.94
2022-12-01T08:39:46.158Z,102433.59
2022-12-01T08:43:58.018Z,102430.34
2022-12-01T08:48:02.767Z,102440.00
2022-12-01T08:52:05.726Z,102435.44
2022-12-01T08:56:12.062Z,102434.75
2022-12-01T09:00:15.919Z,102441.31
2022-12-01T09:04:20.911Z,102441.19
2022-12-01T09:08:32.620Z,102435.91
2022-12-01T09:12:35.411Z,102443.34
2022-12-01T09:16:38.388Z,102446.56
2022-12-01T09:20:42.685Z,102436.78
2022-12-01T09:24:45.844Z,102436.63
2022-12-01T09:28:53.367Z,102441.00
2022-12-01T09:32:56.190Z,102448.41
2022-12-01T09:37:00.677Z,102464.81
2022-12-01T09:41:06.962Z,102449.78
2022-12-01T09:45:23.638Z,102441.16
2022-12-01T09:49:30.439Z,102444.69
2022-12-01T09:53:34.509Z,102444.34
2022-12-01T09:57:40.327Z,102443.84
2022-12-01T10:01:45.804Z,102444.16
2022-12-01T10:06:25.840Z,102436.22
2022-12-01T10:10:26.157Z,102429.16
2022-12-01T10:14:34.771Z,102429.66
2022-12-01T10:18:52.692Z,102425.59
2022-12-01T10:23:14.278Z,102423.22
2022-12-01T10:27:40.788Z,102422.03
2022-12-01T10:31:52.790Z,102426.09
2022-12-01T10:35:55.748Z,102419.50
2022-12-01T10:39:59.629Z,102423.56
2022-12-01T10:44:05.692Z,102429.13
2022-12-01T10:48:15.039Z,102419.31
2022-12-01T10:52:42.561Z,102426.25
2022-12-01T10:56:49.318Z,102420.69
2022-12-01T11:01:00.713Z,102410.38
2022-12-01T11:05:07.365Z,102410.38
2022-12-01T11:09:25.971Z,102419.00
2022-12-01T11:13:32.049Z,102423.69
2022-12-01T11:17:39.954Z,102420.97
2022-12-01T11:21:48.554Z,102418.13
2022-12-01T11:25:59.649Z,102406.94
2022-12-01T11:30:05.777Z,102402.06
2022-12-01T11:34:19.665Z,102406.91
2022-12-01T11:38:31.304Z,102405.78
2022-12-01T11:42:36.902Z,102411.19
2022-12-01T11:46:50.077Z,102405.78
2022-12-01T11:51:07.067Z,102396.97
2022-12-01T11:55:22.879Z,102395.63
2022-12-01T11:59:28.271Z,102390.03
2022-12-01T12:03:41.355Z,102396.13
2022-12-01T12:07:56.814Z,102394.63
2022-12-01T12:12:16.437Z,102395.66
2022-12-01T12:16:31.919Z,102378.59
2022-12-01T12:20:52.612Z,102381.31
2022-12-01T12:25:08.399Z,102376.88
2022-12-01T12:29:35.729Z,102371.16
2022-12-01T12:34:11.901Z,102375.56
2022-12-01T12:38:33.454Z,102373.69
2022-12-01T12:42:48.340Z,102367.28
2022-12-01T12:47:00.593Z,102374.19
2022-12-01T12:51:13.471Z,102373.34
2022-12-01T12:55:23.941Z,102367.28
2022-12-01T12:59:35.682Z,102368.63
2022-12-01T13:03:46.522Z,102370.84
2022-12-01T13:07:54.769Z,102364.94
2022-12-01T13:12:03.637Z,102361.41
2022-12-01T13:16:14.639Z,102358.69
2022-12-01T13:20:20.831Z,102361.75
2022-12-01T13:24:26.524Z,102351.13
2022-12-01T13:28:39.146Z,102349.94
2022-12-01T13:32:43.927Z,102345.88
2022-12-01T13:36:51.205Z,102336.88
2022-12-01T13:41:22.379Z,102338.88
2022-12-01T13:45:25.481Z,102346.28
2022-12-01T13:49:39.685Z,102348.31
2022-12-01T13:53:58.694Z,102350.69
2022-12-01T13:58:41.099Z,102345.75
2022-12-01T14:02:44.366Z,102347.44
2022-12-01T14:06:50.264Z,102346.59
2022-12-01T14:10:55.838Z,102350.13
2022-12-01T14:15:01.688Z,102346.78
2022-12-01T14:19:04.924Z,102355.75
2022-12-01T14:23:21.303Z,102351.00
2022-12-01T14:27:35.849Z,102350.69
2022-12-01T14:32:24.812Z,102351.91
2022-12-01T14:36:39.386Z,102355.94
2022-12-01T14:40:45.296Z,102340.91
2022-12-01T14:44:51.405Z,102357.47
2022-12-01T14:48:56.463Z,102352.72
2022-12-01T14:53:07.643Z,102357.13
2022-12-01T14:57:16.967Z,102355.44
2022-12-01T15:01:23.379Z,102344.16
2022-12-01T15:05:29.477Z,102363.91
2022-12-01T15:09:34.148Z,102361.38
2022-12-01T15:13:49.432Z,102373.88
2022-12-01T15:17:55.450Z,102366.78
2022-12-01T15:21:58.692Z,102361.53
2022-12-01T15:26:01.846Z,102366.66
2022-12-01T15:30:07.911Z,102358.19
2022-12-01T15:34:16.330Z,102352.13
2022-12-01T15:38:22.962Z,102344.84
2022-12-01T15:42:29.421Z,102346.53
2022-12-01T15:46:35.573Z,102344.00
2022-12-01T15:50:46.168Z,102331.34
2022-12-01T15:54:51.374Z,102332.69
2022-12-01T15:59:00.200Z,102332.34
2022-12-01T16:03:04.939Z,102331.72
2022-12-01T16:07:10.709Z,102333.09
2022-12-01T16:11:15.900Z,102343.03
2022-12-01T16:15:22.714Z,102343.91
2022-12-01T16:19:31.719Z,102340.31
2022-12-01T16:23:34.676Z,102342.19
2022-12-01T16:27:38.038Z,102344.03
2022-12-01T16:31:58.502Z,102356.72
2022-12-01T16:36:06.103Z,102351.31
2022-12-01T16:40:11.403Z,102351.50
2022-12-01T16:44:28.443Z,102353.53
2022-12-01T16:48:32.314Z,102359.44
2022-12-01T16:52:45.651Z,102360.28
2022-12-01T16:56:49.446Z,102362.50
2022-12-01T17:00:53.725Z,102360.13
2022-12-01T17:04:57.056Z,102362.16
2022-12-01T17:09:01.972Z,102372.28
2022-12-01T17:13:05.172Z,102367.06
2022-12-01T17:17:08.339Z,102371.13
2022-12-01T17:21:12.418Z,102370.63
2022-12-01T17:25:16.967Z,102377.03
2022-12-01T17:29:20.083Z,102370.81
2022-12-01T17:33:23.954Z,102364.38
2022-12-01T17:37:28.010Z,102368.28
2022-12-01T17:41:35.660Z,102364.56
2022-12-01T17:45:41.854Z,102370.13
2022-12-01T17:49:44.810Z,102376.03
2022-12-01T17:53:47.906Z,102368.44
2022-12-01T17:57:52.770Z,102371.50
2022-12-01T18:01:55.867Z,102371.31
2022-12-01T18:06:00.218Z,102372.16
2022-12-01T18:10:03.318Z,102384.66
2022-12-01T18:14:07.656Z,102380.09
2022-12-01T18:18:12.093Z,102369.97
2022-12-01T18:22:14.966Z,102382.13
2022-12-01T18:26:19.463Z,102378.75
2022-12-01T18:30:23.535Z,102380.78
2022-12-01T18:34:29.441Z,102373.16
2022-12-01T18:38:32.351Z,102383.28
2022-12-01T18:42:35.089Z,102379.38
2022-12-01T18:46:39.304Z,102386.81
2022-12-01T18:50:42.067Z,102385.44
2022-12-01T18:54:44.836Z,102381.56
2022-12-01T18:58:47.536Z,102384.06
2022-12-01T19:02:51.603Z,102382.22
2022-12-01T19:06:55.116Z,102383.72
2022-12-01T19:11:02.150Z,102382.53
2022-12-01T19:15:05.726Z,102384.03
2022-12-01T19:19:10.623Z,102381.00
2022-12-01T19:23:13.381Z,102388.06
2022-12-01T19:27:16.151Z,102393.16
2022-12-01T19:31:22.583Z,102382.66
2022-12-01T19:35:27.492Z,102389.06
2022-12-01T19:39:30.241Z,102389.06
2022-12-01T19:43:34.988Z,102384.66
2022-12-01T19:47:38.461Z,102383.84
2022-12-01T19:51:42.530Z,102388.03
2022-12-01T19:55:45.234Z,102381.13
2022-12-01T19:59:47.940Z,102388.22
2022-12-01T20:03:52.429Z,102396.25
2022-12-01T20:07:56.703Z,102393.03
2022-12-01T20:11:59.470Z,102391.19
2022-12-01T20:16:04.053Z,102388.84
2022-12-01T20:20:08.238Z,102393.34
2022-12-01T20:24:14.995Z,102391.38
2022-12-01T20:28:17.893Z,102395.41
2022-12-01T20:32:23.480Z,102392.88
2022-12-01T20:36:27.188Z,102396.75
2022-12-01T20:40:31.386Z,102397.06
2022-12-01T20:44:34.493Z,102392.19
2022-12-01T20:48:37.382Z,102398.59
2022-12-01T20:52:40.765Z,102397.03
2022-12-01T20:56:44.909Z,102381.72
2022-12-01T21:00:49.884Z,102397.56
2022-12-01T21:04:56.387Z,102393.88
2022-12-01T21:09:02.404Z,102382.75
2022-12-01T21:13:36.081Z,102383.75
2022-12-01T21:17:43.132Z,102380.69
2022-12-01T21:21:46.022Z,102370.25
2022-12-01T21:25:51.177Z,102372.28
2022-12-01T21:29:56.665Z,102370.06
2022-12-01T21:33:59.411Z,102360.78
2022-12-01T21:38:05.218Z,102363.47
2022-12-01T21:42:28.127Z,102362.81
2022-12-01T21:46:32.483Z,102365.84
2022-12-01T21:50:35.201Z,102368.81
2022-12-01T21:54:38.012Z,102374.19
2022-12-01T21:58:40.894Z,102376.25
2022-12-01T22:02:50.610Z,102366.69
2022-12-01T22:06:54.930Z,102357.91
2022-12-01T22:11:01.119Z,102347.97
2022-12-01T22:15:28.930Z,102346.09
2022-12-01T22:19:34.728Z,102346.78
2022-12-01T22:23:37.452Z,102352.66
2022-12-01T22:27:40.674Z,102340.34
2022-12-01T22:31:43.420Z,102342.34
2022-12-01T22:35:49.135Z,102351.13
2022-12-01T22:39:55.820Z,102325.16
2022-12-01T22:44:00.554Z,102329.72
2022-12-01T22:48:03.423Z,102333.97
2022-12-01T22:52:17.048Z,102336.78
2022-12-01T22:56:28.548Z,102336.66
2022-12-01T23:00:31.443Z,102323.81
2022-12-01T23:04:39.294Z,102339.81
2022-12-01T23:08:43.367Z,102338.97
2022-12-01T23:12:47.652Z,102334.91
2022-12-01T23:16:53.340Z,102330.88
2022-12-01T23:20:57.978Z,102325.94
2022-12-01T23:25:10.460Z,102332.34
2022-12-01T23:29:13.690Z,102332.31
2022-12-01T23:33:20.524Z,102323.84
2022-12-01T23:37:35.074Z,102322.47
2022-12-01T23:41:41.868Z,102318.47
2022-12-01T23:45:45.326Z,102307.50
2022-12-01T23:49:53.059Z,102304.84
2022-12-01T23:53:57.515Z,102298.81
2022-12-01T23:58:03.695Z,102300.88
